sensor_id;sensor_type;location;lat;lon;timestamp;P1;durP1;ratioP1;P2;durP2;ratioP2
54929;SDS011;40833;53.238;6.576;2024-01-07T00:00:30;12.37;;;7.30;;
54929;SDS011;40833;53.238;6.576;2024-01-07T00:02:55;13.00;;;7.50;;
54929;SDS011;40833;53.238;6.576;2024-01-07T00:05:21;11.00;;;7.53;;
54929;SDS011;40833;53.238;6.576;2024-01-07T00:07:47;13.87;;;6.87;;
54929;SDS011;40833;53.238;6.576;2024-01-07T00:10:13;11.97;;;6.73;;
54929;SDS011;40833;53.238;6.576;2024-01-07T00:12:39;9.27;;;6.57;;
54929;SDS011;40833;53.238;6.576;2024-01-07T00:15:05;14.07;;;7.53;;
54929;SDS011;40833;53.238;6.576;2024-01-07T00:17:31;10.33;;;6.40;;
54929;SDS011;40833;53.238;6.576;2024-01-07T00:19:57;13.37;;;6.93;;
54929;SDS011;40833;53.238;6.576;2024-01-07T00:22:22;9.80;;;7.10;;
54929;SDS011;40833;53.238;6.576;2024-01-07T00:24:48;10.80;;;7.50;;
54929;SDS011;40833;53.238;6.576;2024-01-07T00:27:14;11.07;;;7.13;;
54929;SDS011;40833;53.238;6.576;2024-01-07T00:29:39;12.00;;;6.83;;
54929;SDS011;40833;53.238;6.576;2024-01-07T00:32:05;8.57;;;6.47;;
54929;SDS011;40833;53.238;6.576;2024-01-07T00:34:31;10.73;;;6.90;;
54929;SDS011;40833;53.238;6.576;2024-01-07T00:36:56;7.83;;;6.27;;
54929;SDS011;40833;53.238;6.576;2024-01-07T00:39:22;10.93;;;6.83;;
54929;SDS011;40833;53.238;6.576;2024-01-07T00:41:48;14.50;;;7.53;;
54929;SDS011;40833;53.238;6.576;2024-01-07T00:44:13;9.03;;;6.03;;
54929;SDS011;40833;53.238;6.576;2024-01-07T00:46:39;10.73;;;6.47;;
54929;SDS011;40833;53.238;6.576;2024-01-07T00:49:05;8.57;;;5.87;;
54929;SDS011;40833;53.238;6.576;2024-01-07T00:51:30;12.67;;;6.93;;
54929;SDS011;40833;53.238;6.576;2024-01-07T00:53:56;10.37;;;6.23;;
54929;SDS011;40833;53.238;6.576;2024-01-07T00:56:25;9.47;;;5.87;;
54929;SDS011;40833;53.238;6.576;2024-01-07T00:58:51;13.17;;;6.57;;
54929;SDS011;40833;53.238;6.576;2024-01-07T01:01:17;8.70;;;6.10;;
54929;SDS011;40833;53.238;6.576;2024-01-07T01:03:43;9.87;;;6.33;;
54929;SDS011;40833;53.238;6.576;2024-01-07T01:06:08;12.70;;;7.00;;
54929;SDS011;40833;53.238;6.576;2024-01-07T01:08:34;9.67;;;6.57;;
54929;SDS011;40833;53.238;6.576;2024-01-07T01:11:00;10.93;;;6.70;;
54929;SDS011;40833;53.238;6.576;2024-01-07T01:13:26;12.13;;;6.80;;
54929;SDS011;40833;53.238;6.576;2024-01-07T01:15:51;9.53;;;6.17;;
54929;SDS011;40833;53.238;6.576;2024-01-07T01:18:17;13.07;;;6.40;;
54929;SDS011;40833;53.238;6.576;2024-01-07T01:20:43;10.30;;;6.43;;
54929;SDS011;40833;53.238;6.576;2024-01-07T01:23:08;12.33;;;6.23;;
54929;SDS011;40833;53.238;6.576;2024-01-07T01:25:34;10.47;;;6.50;;
54929;SDS011;40833;53.238;6.576;2024-01-07T01:28:01;8.57;;;5.77;;
54929;SDS011;40833;53.238;6.576;2024-01-07T01:30:27;9.37;;;5.97;;
54929;SDS011;40833;53.238;6.576;2024-01-07T01:32:55;8.57;;;6.10;;
54929;SDS011;40833;53.238;6.576;2024-01-07T01:35:21;9.20;;;5.77;;
54929;SDS011;40833;53.238;6.576;2024-01-07T01:37:47;9.13;;;5.87;;
54929;SDS011;40833;53.238;6.576;2024-01-07T01:40:12;10.40;;;5.97;;
54929;SDS011;40833;53.238;6.576;2024-01-07T01:42:38;9.20;;;5.70;;
54929;SDS011;40833;53.238;6.576;2024-01-07T01:45:08;11.53;;;6.37;;
54929;SDS011;40833;53.238;6.576;2024-01-07T01:47:33;11.37;;;6.30;;
54929;SDS011;40833;53.238;6.576;2024-01-07T01:49:59;14.23;;;6.37;;
54929;SDS011;40833;53.238;6.576;2024-01-07T01:52:25;8.90;;;5.80;;
54929;SDS011;40833;53.238;6.576;2024-01-07T01:54:51;11.73;;;6.47;;
54929;SDS011;40833;53.238;6.576;2024-01-07T01:57:19;9.40;;;5.37;;
54929;SDS011;40833;53.238;6.576;2024-01-07T01:59:47;9.63;;;5.63;;
54929;SDS011;40833;53.238;6.576;2024-01-07T02:02:13;11.70;;;5.27;;
54929;SDS011;40833;53.238;6.576;2024-01-07T02:04:39;9.43;;;5.50;;
54929;SDS011;40833;53.238;6.576;2024-01-07T02:07:05;11.00;;;5.50;;
54929;SDS011;40833;53.238;6.576;2024-01-07T02:09:31;10.60;;;5.23;;
54929;SDS011;40833;53.238;6.576;2024-01-07T02:12:03;7.73;;;5.27;;
54929;SDS011;40833;53.238;6.576;2024-01-07T02:14:29;6.67;;;3.97;;
54929;SDS011;40833;53.238;6.576;2024-01-07T02:16:55;7.77;;;4.60;;
54929;SDS011;40833;53.238;6.576;2024-01-07T02:19:21;6.70;;;4.37;;
54929;SDS011;40833;53.238;6.576;2024-01-07T02:21:47;7.63;;;4.53;;
54929;SDS011;40833;53.238;6.576;2024-01-07T02:24:15;5.70;;;4.40;;
54929;SDS011;40833;53.238;6.576;2024-01-07T02:26:41;7.50;;;4.47;;
54929;SDS011;40833;53.238;6.576;2024-01-07T02:29:07;7.70;;;4.80;;
54929;SDS011;40833;53.238;6.576;2024-01-07T02:31:33;8.63;;;4.33;;
54929;SDS011;40833;53.238;6.576;2024-01-07T02:33:58;6.60;;;4.73;;
54929;SDS011;40833;53.238;6.576;2024-01-07T02:36:24;7.13;;;4.17;;
54929;SDS011;40833;53.238;6.576;2024-01-07T02:38:49;8.63;;;4.43;;
54929;SDS011;40833;53.238;6.576;2024-01-07T02:41:15;7.13;;;4.17;;
54929;SDS011;40833;53.238;6.576;2024-01-07T02:43:41;8.47;;;4.83;;
54929;SDS011;40833;53.238;6.576;2024-01-07T02:46:07;7.60;;;4.10;;
54929;SDS011;40833;53.238;6.576;2024-01-07T02:48:33;6.77;;;4.20;;
54929;SDS011;40833;53.238;6.576;2024-01-07T02:51:00;14.10;;;4.50;;
54929;SDS011;40833;53.238;6.576;2024-01-07T02:53:26;6.40;;;3.80;;
54929;SDS011;40833;53.238;6.576;2024-01-07T02:55:51;9.33;;;4.40;;
54929;SDS011;40833;53.238;6.576;2024-01-07T02:58:17;5.97;;;3.80;;
54929;SDS011;40833;53.238;6.576;2024-01-07T03:00:42;7.63;;;4.23;;
54929;SDS011;40833;53.238;6.576;2024-01-07T03:03:08;5.83;;;3.77;;
54929;SDS011;40833;53.238;6.576;2024-01-07T03:05:34;6.33;;;3.30;;
54929;SDS011;40833;53.238;6.576;2024-01-07T03:07:59;6.23;;;3.50;;
54929;SDS011;40833;53.238;6.576;2024-01-07T03:10:25;7.33;;;3.87;;
54929;SDS011;40833;53.238;6.576;2024-01-07T03:12:51;4.10;;;3.47;;
54929;SDS011;40833;53.238;6.576;2024-01-07T03:15:17;7.97;;;4.00;;
54929;SDS011;40833;53.238;6.576;2024-01-07T03:17:43;5.07;;;3.10;;
54929;SDS011;40833;53.238;6.576;2024-01-07T03:20:09;5.43;;;3.17;;
54929;SDS011;40833;53.238;6.576;2024-01-07T03:22:35;6.47;;;3.27;;
54929;SDS011;40833;53.238;6.576;2024-01-07T03:25:01;5.97;;;2.90;;
54929;SDS011;40833;53.238;6.576;2024-01-07T03:27:27;7.10;;;2.40;;
54929;SDS011;40833;53.238;6.576;2024-01-07T03:29:52;3.70;;;2.73;;
54929;SDS011;40833;53.238;6.576;2024-01-07T03:32:18;4.80;;;2.67;;
54929;SDS011;40833;53.238;6.576;2024-01-07T03:34:44;3.67;;;2.73;;
54929;SDS011;40833;53.238;6.576;2024-01-07T03:37:09;4.60;;;2.77;;
54929;SDS011;40833;53.238;6.576;2024-01-07T03:39:35;5.77;;;3.13;;
54929;SDS011;40833;53.238;6.576;2024-01-07T03:42:01;5.80;;;2.80;;
54929;SDS011;40833;53.238;6.576;2024-01-07T03:44:26;5.53;;;3.13;;
54929;SDS011;40833;53.238;6.576;2024-01-07T03:46:52;4.33;;;2.50;;
54929;SDS011;40833;53.238;6.576;2024-01-07T03:49:18;5.50;;;2.33;;
54929;SDS011;40833;53.238;6.576;2024-01-07T03:51:43;6.10;;;2.83;;
54929;SDS011;40833;53.238;6.576;2024-01-07T03:54:09;5.90;;;3.00;;
54929;SDS011;40833;53.238;6.576;2024-01-07T03:56:35;5.03;;;2.73;;
54929;SDS011;40833;53.238;6.576;2024-01-07T03:59:00;4.27;;;2.53;;
54929;SDS011;40833;53.238;6.576;2024-01-07T04:01:26;6.00;;;2.90;;
54929;SDS011;40833;53.238;6.576;2024-01-07T04:03:51;4.57;;;2.80;;
54929;SDS011;40833;53.238;6.576;2024-01-07T04:06:17;4.37;;;2.27;;
54929;SDS011;40833;53.238;6.576;2024-01-07T04:08:43;4.77;;;2.60;;
54929;SDS011;40833;53.238;6.576;2024-01-07T04:11:08;7.47;;;2.00;;
54929;SDS011;40833;53.238;6.576;2024-01-07T04:13:34;2.63;;;2.20;;
54929;SDS011;40833;53.238;6.576;2024-01-07T04:16:00;10.63;;;2.47;;
54929;SDS011;40833;53.238;6.576;2024-01-07T04:18:26;5.57;;;2.10;;
54929;SDS011;40833;53.238;6.576;2024-01-07T04:20:52;6.93;;;2.37;;
54929;SDS011;40833;53.238;6.576;2024-01-07T04:23:17;3.90;;;2.33;;
54929;SDS011;40833;53.238;6.576;2024-01-07T04:25:43;4.53;;;1.90;;
54929;SDS011;40833;53.238;6.576;2024-01-07T04:28:10;5.10;;;2.93;;
54929;SDS011;40833;53.238;6.576;2024-01-07T04:30:36;2.27;;;1.63;;
54929;SDS011;40833;53.238;6.576;2024-01-07T04:33:01;3.70;;;2.20;;
54929;SDS011;40833;53.238;6.576;2024-01-07T04:35:27;5.90;;;1.90;;
54929;SDS011;40833;53.238;6.576;2024-01-07T04:37:53;4.53;;;1.40;;
54929;SDS011;40833;53.238;6.576;2024-01-07T04:40:18;3.03;;;1.27;;
54929;SDS011;40833;53.238;6.576;2024-01-07T04:42:44;2.63;;;1.60;;
54929;SDS011;40833;53.238;6.576;2024-01-07T04:45:10;2.33;;;1.40;;
54929;SDS011;40833;53.238;6.576;2024-01-07T04:47:35;4.57;;;1.90;;
54929;SDS011;40833;53.238;6.576;2024-01-07T04:50:01;2.77;;;1.23;;
54929;SDS011;40833;53.238;6.576;2024-01-07T04:52:28;3.23;;;1.20;;
54929;SDS011;40833;53.238;6.576;2024-01-07T04:54:54;2.83;;;1.60;;
54929;SDS011;40833;53.238;6.576;2024-01-07T04:57:20;1.73;;;1.07;;
54929;SDS011;40833;53.238;6.576;2024-01-07T04:59:46;1.97;;;1.10;;
54929;SDS011;40833;53.238;6.576;2024-01-07T05:02:13;1.63;;;1.00;;
54929;SDS011;40833;53.238;6.576;2024-01-07T05:04:39;3.07;;;1.20;;
54929;SDS011;40833;53.238;6.576;2024-01-07T05:07:05;5.73;;;1.50;;
54929;SDS011;40833;53.238;6.576;2024-01-07T05:09:31;4.80;;;1.43;;
54929;SDS011;40833;53.238;6.576;2024-01-07T05:11:57;2.03;;;1.13;;
54929;SDS011;40833;53.238;6.576;2024-01-07T05:14:23;19.93;;;1.63;;
54929;SDS011;40833;53.238;6.576;2024-01-07T05:16:48;4.53;;;1.10;;
54929;SDS011;40833;53.238;6.576;2024-01-07T05:19:14;6.63;;;1.67;;
54929;SDS011;40833;53.238;6.576;2024-01-07T05:21:40;2.00;;;1.27;;
54929;SDS011;40833;53.238;6.576;2024-01-07T05:24:05;3.03;;;1.30;;
54929;SDS011;40833;53.238;6.576;2024-01-07T05:26:37;1.70;;;0.77;;
54929;SDS011;40833;53.238;6.576;2024-01-07T05:29:12;2.40;;;1.13;;
54929;SDS011;40833;53.238;6.576;2024-01-07T05:31:38;1.90;;;1.10;;
54929;SDS011;40833;53.238;6.576;2024-01-07T05:34:06;4.50;;;0.90;;
54929;SDS011;40833;53.238;6.576;2024-01-07T05:36:32;1.90;;;1.00;;
54929;SDS011;40833;53.238;6.576;2024-01-07T05:38:58;1.10;;;1.00;;
54929;SDS011;40833;53.238;6.576;2024-01-07T05:41:23;1.77;;;0.70;;
54929;SDS011;40833;53.238;6.576;2024-01-07T05:43:49;1.67;;;0.90;;
54929;SDS011;40833;53.238;6.576;2024-01-07T05:46:16;2.53;;;0.77;;
54929;SDS011;40833;53.238;6.576;2024-01-07T05:48:42;3.23;;;0.77;;
54929;SDS011;40833;53.238;6.576;2024-01-07T05:51:13;1.50;;;1.25;;
54929;SDS011;40833;53.238;6.576;2024-01-07T05:53:40;1.23;;;0.90;;
54929;SDS011;40833;53.238;6.576;2024-01-07T05:56:06;2.90;;;0.90;;
54929;SDS011;40833;53.238;6.576;2024-01-07T05:58:32;3.37;;;1.37;;
54929;SDS011;40833;53.238;6.576;2024-01-07T06:00:58;3.17;;;0.80;;
54929;SDS011;40833;53.238;6.576;2024-01-07T06:03:24;3.20;;;0.83;;
54929;SDS011;40833;53.238;6.576;2024-01-07T06:05:49;1.80;;;0.87;;
54929;SDS011;40833;53.238;6.576;2024-01-07T06:08:15;3.33;;;0.87;;
54929;SDS011;40833;53.238;6.576;2024-01-07T06:10:41;1.33;;;1.10;;
54929;SDS011;40833;53.238;6.576;2024-01-07T06:13:06;2.67;;;0.87;;
54929;SDS011;40833;53.238;6.576;2024-01-07T06:15:32;5.50;;;1.17;;
54929;SDS011;40833;53.238;6.576;2024-01-07T06:17:58;2.70;;;1.00;;
54929;SDS011;40833;53.238;6.576;2024-01-07T06:20:24;2.17;;;0.80;;
54929;SDS011;40833;53.238;6.576;2024-01-07T06:22:49;5.57;;;0.97;;
54929;SDS011;40833;53.238;6.576;2024-01-07T06:25:15;3.33;;;0.67;;
54929;SDS011;40833;53.238;6.576;2024-01-07T06:27:41;6.00;;;0.90;;
54929;SDS011;40833;53.238;6.576;2024-01-07T06:30:07;2.77;;;1.10;;
54929;SDS011;40833;53.238;6.576;2024-01-07T06:32:34;3.10;;;0.97;;
54929;SDS011;40833;53.238;6.576;2024-01-07T06:35:00;2.60;;;0.70;;
54929;SDS011;40833;53.238;6.576;2024-01-07T06:37:28;3.07;;;0.57;;
54929;SDS011;40833;53.238;6.576;2024-01-07T06:39:55;6.13;;;0.80;;
54929;SDS011;40833;53.238;6.576;2024-01-07T06:42:21;2.23;;;0.73;;
54929;SDS011;40833;53.238;6.576;2024-01-07T06:44:47;3.17;;;0.80;;
54929;SDS011;40833;53.238;6.576;2024-01-07T06:47:13;1.77;;;0.70;;
54929;SDS011;40833;53.238;6.576;2024-01-07T06:49:39;1.87;;;0.63;;
54929;SDS011;40833;53.238;6.576;2024-01-07T06:52:05;2.50;;;0.97;;
54929;SDS011;40833;53.238;6.576;2024-01-07T06:54:30;7.27;;;1.00;;
54929;SDS011;40833;53.238;6.576;2024-01-07T06:56:56;1.00;;;0.50;;
54929;SDS011;40833;53.238;6.576;2024-01-07T06:59:22;2.17;;;0.50;;
54929;SDS011;40833;53.238;6.576;2024-01-07T07:01:47;4.47;;;0.20;;
54929;SDS011;40833;53.238;6.576;2024-01-07T07:04:13;1.80;;;0.33;;
54929;SDS011;40833;53.238;6.576;2024-01-07T07:06:39;1.43;;;0.40;;
54929;SDS011;40833;53.238;6.576;2024-01-07T07:09:04;1.90;;;0.50;;
54929;SDS011;40833;53.238;6.576;2024-01-07T07:11:30;1.70;;;0.40;;
54929;SDS011;40833;53.238;6.576;2024-01-07T07:13:56;3.13;;;0.70;;
54929;SDS011;40833;53.238;6.576;2024-01-07T07:16:22;4.00;;;0.43;;
54929;SDS011;40833;53.238;6.576;2024-01-07T07:18:48;1.27;;;0.47;;
54929;SDS011;40833;53.238;6.576;2024-01-07T07:21:13;2.70;;;0.43;;
54929;SDS011;40833;53.238;6.576;2024-01-07T07:23:39;2.70;;;0.70;;
54929;SDS011;40833;53.238;6.576;2024-01-07T07:26:05;2.53;;;0.57;;
54929;SDS011;40833;53.238;6.576;2024-01-07T07:28:32;2.20;;;0.40;;
54929;SDS011;40833;53.238;6.576;2024-01-07T07:30:57;0.40;;;0.40;;
54929;SDS011;40833;53.238;6.576;2024-01-07T07:33:23;2.23;;;0.33;;
54929;SDS011;40833;53.238;6.576;2024-01-07T07:35:49;5.40;;;0.80;;
54929;SDS011;40833;53.238;6.576;2024-01-07T07:38:15;3.53;;;0.73;;
54929;SDS011;40833;53.238;6.576;2024-01-07T07:40:40;4.93;;;0.80;;
54929;SDS011;40833;53.238;6.576;2024-01-07T07:43:07;2.47;;;0.63;;
54929;SDS011;40833;53.238;6.576;2024-01-07T07:45:33;8.90;;;1.30;;
54929;SDS011;40833;53.238;6.576;2024-01-07T07:47:59;2.13;;;0.60;;
54929;SDS011;40833;53.238;6.576;2024-01-07T07:50:25;2.50;;;0.83;;
54929;SDS011;40833;53.238;6.576;2024-01-07T07:52:50;3.20;;;0.90;;
54929;SDS011;40833;53.238;6.576;2024-01-07T07:55:16;1.57;;;0.80;;
54929;SDS011;40833;53.238;6.576;2024-01-07T07:57:42;1.07;;;0.60;;
54929;SDS011;40833;53.238;6.576;2024-01-07T08:00:09;3.33;;;1.53;;
54929;SDS011;40833;53.238;6.576;2024-01-07T08:02:38;3.37;;;0.80;;
54929;SDS011;40833;53.238;6.576;2024-01-07T08:05:04;2.63;;;0.83;;
54929;SDS011;40833;53.238;6.576;2024-01-07T08:07:31;3.50;;;0.97;;
54929;SDS011;40833;53.238;6.576;2024-01-07T08:09:57;2.47;;;0.77;;
54929;SDS011;40833;53.238;6.576;2024-01-07T08:12:23;3.23;;;0.83;;
54929;SDS011;40833;53.238;6.576;2024-01-07T08:14:49;2.10;;;0.80;;
54929;SDS011;40833;53.238;6.576;2024-01-07T08:17:14;5.10;;;0.70;;
54929;SDS011;40833;53.238;6.576;2024-01-07T08:19:40;1.17;;;0.90;;
54929;SDS011;40833;53.238;6.576;2024-01-07T08:22:06;2.90;;;1.70;;
54929;SDS011;40833;53.238;6.576;2024-01-07T08:24:31;4.77;;;0.87;;
54929;SDS011;40833;53.238;6.576;2024-01-07T08:26:57;2.27;;;0.87;;
54929;SDS011;40833;53.238;6.576;2024-01-07T08:29:23;0.60;;;0.53;;
54929;SDS011;40833;53.238;6.576;2024-01-07T08:31:48;1.63;;;0.73;;
54929;SDS011;40833;53.238;6.576;2024-01-07T08:34:14;2.10;;;0.60;;
54929;SDS011;40833;53.238;6.576;2024-01-07T08:36:40;1.83;;;0.67;;
54929;SDS011;40833;53.238;6.576;2024-01-07T08:39:06;2.33;;;0.70;;
54929;SDS011;40833;53.238;6.576;2024-01-07T08:41:33;1.17;;;0.70;;
54929;SDS011;40833;53.238;6.576;2024-01-07T08:43:59;2.47;;;0.60;;
54929;SDS011;40833;53.238;6.576;2024-01-07T08:46:25;3.87;;;0.67;;
54929;SDS011;40833;53.238;6.576;2024-01-07T08:48:51;3.10;;;0.73;;
54929;SDS011;40833;53.238;6.576;2024-01-07T08:51:17;3.93;;;0.70;;
54929;SDS011;40833;53.238;6.576;2024-01-07T08:53:42;1.13;;;0.57;;
54929;SDS011;40833;53.238;6.576;2024-01-07T08:56:08;7.63;;;0.73;;
54929;SDS011;40833;53.238;6.576;2024-01-07T08:58:34;2.47;;;0.70;;
54929;SDS011;40833;53.238;6.576;2024-01-07T09:01:00;2.03;;;1.23;;
54929;SDS011;40833;53.238;6.576;2024-01-07T09:03:25;1.70;;;0.67;;
54929;SDS011;40833;53.238;6.576;2024-01-07T09:05:51;4.93;;;1.43;;
54929;SDS011;40833;53.238;6.576;2024-01-07T09:08:17;4.17;;;0.97;;
54929;SDS011;40833;53.238;6.576;2024-01-07T09:10:42;3.67;;;0.90;;
54929;SDS011;40833;53.238;6.576;2024-01-07T09:13:08;2.30;;;1.00;;
54929;SDS011;40833;53.238;6.576;2024-01-07T09:15:34;2.67;;;1.23;;
54929;SDS011;40833;53.238;6.576;2024-01-07T09:17:59;3.90;;;1.00;;
54929;SDS011;40833;53.238;6.576;2024-01-07T09:20:25;8.30;;;1.63;;
54929;SDS011;40833;53.238;6.576;2024-01-07T09:22:51;5.30;;;1.30;;
54929;SDS011;40833;53.238;6.576;2024-01-07T09:25:17;2.93;;;1.20;;
54929;SDS011;40833;53.238;6.576;2024-01-07T09:27:43;4.07;;;1.10;;
54929;SDS011;40833;53.238;6.576;2024-01-07T09:30:09;6.00;;;1.47;;
54929;SDS011;40833;53.238;6.576;2024-01-07T09:32:40;1.27;;;1.17;;
54929;SDS011;40833;53.238;6.576;2024-01-07T09:35:07;2.10;;;1.27;;
54929;SDS011;40833;53.238;6.576;2024-01-07T09:37:33;2.87;;;1.20;;
54929;SDS011;40833;53.238;6.576;2024-01-07T09:40:00;2.53;;;0.90;;
54929;SDS011;40833;53.238;6.576;2024-01-07T09:42:26;1.33;;;1.20;;
54929;SDS011;40833;53.238;6.576;2024-01-07T09:44:52;3.57;;;1.60;;
54929;SDS011;40833;53.238;6.576;2024-01-07T09:47:18;1.40;;;1.10;;
54929;SDS011;40833;53.238;6.576;2024-01-07T09:49:45;2.87;;;1.40;;
54929;SDS011;40833;53.238;6.576;2024-01-07T09:52:11;1.63;;;1.50;;
54929;SDS011;40833;53.238;6.576;2024-01-07T09:54:37;4.30;;;1.10;;
54929;SDS011;40833;53.238;6.576;2024-01-07T09:57:06;1.80;;;1.20;;
54929;SDS011;40833;53.238;6.576;2024-01-07T09:59:33;0.97;;;0.87;;
54929;SDS011;40833;53.238;6.576;2024-01-07T10:01:59;3.10;;;1.20;;
54929;SDS011;40833;53.238;6.576;2024-01-07T10:04:25;1.87;;;0.97;;
54929;SDS011;40833;53.238;6.576;2024-01-07T10:06:58;2.93;;;1.03;;
54929;SDS011;40833;53.238;6.576;2024-01-07T10:09:24;2.43;;;1.17;;
54929;SDS011;40833;53.238;6.576;2024-01-07T10:11:54;2.83;;;1.40;;
54929;SDS011;40833;53.238;6.576;2024-01-07T10:14:20;3.10;;;1.00;;
54929;SDS011;40833;53.238;6.576;2024-01-07T10:16:49;4.47;;;1.03;;
54929;SDS011;40833;53.238;6.576;2024-01-07T10:19:22;2.70;;;0.90;;
54929;SDS011;40833;53.238;6.576;2024-01-07T10:22:09;4.43;;;1.10;;
54929;SDS011;40833;53.238;6.576;2024-01-07T10:24:37;2.40;;;1.40;;
54929;SDS011;40833;53.238;6.576;2024-01-07T10:27:06;3.73;;;1.10;;
54929;SDS011;40833;53.238;6.576;2024-01-07T10:29:33;3.13;;;1.43;;
54929;SDS011;40833;53.238;6.576;2024-01-07T10:31:59;10.97;;;1.57;;
54929;SDS011;40833;53.238;6.576;2024-01-07T10:34:33;3.90;;;1.43;;
54929;SDS011;40833;53.238;6.576;2024-01-07T10:37:01;1.63;;;1.20;;
54929;SDS011;40833;53.238;6.576;2024-01-07T10:39:28;3.53;;;1.30;;
54929;SDS011;40833;53.238;6.576;2024-01-07T10:41:57;2.80;;;1.67;;
54929;SDS011;40833;53.238;6.576;2024-01-07T10:44:26;2.83;;;1.93;;
54929;SDS011;40833;53.238;6.576;2024-01-07T10:46:54;6.23;;;2.13;;
54929;SDS011;40833;53.238;6.576;2024-01-07T10:49:21;2.43;;;1.30;;
54929;SDS011;40833;53.238;6.576;2024-01-07T10:52:05;1.97;;;1.27;;
54929;SDS011;40833;53.238;6.576;2024-01-07T10:54:33;3.70;;;1.30;;
54929;SDS011;40833;53.238;6.576;2024-01-07T10:57:13;2.30;;;1.37;;
54929;SDS011;40833;53.238;6.576;2024-01-07T10:59:46;2.47;;;1.30;;
54929;SDS011;40833;53.238;6.576;2024-01-07T11:02:14;2.13;;;1.53;;
54929;SDS011;40833;53.238;6.576;2024-01-07T11:04:42;2.47;;;2.03;;
54929;SDS011;40833;53.238;6.576;2024-01-07T11:07:39;3.22;;;1.30;;
54929;SDS011;40833;53.238;6.576;2024-01-07T11:10:20;5.20;;;2.30;;
54929;SDS011;40833;53.238;6.576;2024-01-07T11:12:53;7.43;;;2.00;;
54929;SDS011;40833;53.238;6.576;2024-01-07T11:18:20;4.57;;;1.63;;
54929;SDS011;40833;53.238;6.576;2024-01-07T11:20:47;2.93;;;1.90;;
54929;SDS011;40833;53.238;6.576;2024-01-07T11:23:29;5.73;;;2.00;;
54929;SDS011;40833;53.238;6.576;2024-01-07T11:25:59;6.73;;;2.40;;
54929;SDS011;40833;53.238;6.576;2024-01-07T11:28:42;7.00;;;2.30;;
54929;SDS011;40833;53.238;6.576;2024-01-07T11:31:18;6.37;;;2.47;;
54929;SDS011;40833;53.238;6.576;2024-01-07T11:34:04;4.93;;;2.70;;
54929;SDS011;40833;53.238;6.576;2024-01-07T11:36:31;7.77;;;2.63;;
54929;SDS011;40833;53.238;6.576;2024-01-07T11:39:02;5.37;;;2.50;;
54929;SDS011;40833;53.238;6.576;2024-01-07T11:41:32;5.47;;;3.10;;
54929;SDS011;40833;53.238;6.576;2024-01-07T11:43:59;3.80;;;2.50;;
54929;SDS011;40833;53.238;6.576;2024-01-07T11:46:26;4.13;;;2.87;;
54929;SDS011;40833;53.238;6.576;2024-01-07T11:48:53;8.23;;;3.30;;
54929;SDS011;40833;53.238;6.576;2024-01-07T11:51:27;5.60;;;2.77;;
54929;SDS011;40833;53.238;6.576;2024-01-07T11:53:55;4.07;;;2.90;;
54929;SDS011;40833;53.238;6.576;2024-01-07T11:56:21;4.33;;;2.70;;
54929;SDS011;40833;53.238;6.576;2024-01-07T11:58:47;8.93;;;2.93;;
54929;SDS011;40833;53.238;6.576;2024-01-07T12:01:16;5.93;;;2.60;;
54929;SDS011;40833;53.238;6.576;2024-01-07T12:03:45;7.57;;;3.67;;
54929;SDS011;40833;53.238;6.576;2024-01-07T12:06:11;8.23;;;3.80;;
54929;SDS011;40833;53.238;6.576;2024-01-07T12:08:41;5.13;;;3.73;;
54929;SDS011;40833;53.238;6.576;2024-01-07T12:11:07;7.33;;;3.50;;
54929;SDS011;40833;53.238;6.576;2024-01-07T12:13:36;7.40;;;2.90;;
54929;SDS011;40833;53.238;6.576;2024-01-07T12:16:02;5.20;;;2.70;;
54929;SDS011;40833;53.238;6.576;2024-01-07T12:18:29;7.57;;;3.17;;
54929;SDS011;40833;53.238;6.576;2024-01-07T12:20:58;8.13;;;3.17;;
54929;SDS011;40833;53.238;6.576;2024-01-07T12:23:25;7.30;;;2.50;;
54929;SDS011;40833;53.238;6.576;2024-01-07T12:25:52;6.73;;;3.30;;
54929;SDS011;40833;53.238;6.576;2024-01-07T12:28:18;6.97;;;2.73;;
54929;SDS011;40833;53.238;6.576;2024-01-07T12:30:44;4.67;;;2.83;;
54929;SDS011;40833;53.238;6.576;2024-01-07T12:33:15;5.53;;;2.87;;
54929;SDS011;40833;53.238;6.576;2024-01-07T12:35:45;8.65;;;3.08;;
54929;SDS011;40833;53.238;6.576;2024-01-07T12:38:12;9.17;;;3.93;;
54929;SDS011;40833;53.238;6.576;2024-01-07T12:40:37;5.27;;;2.13;;
54929;SDS011;40833;53.238;6.576;2024-01-07T12:43:04;7.57;;;2.60;;
54929;SDS011;40833;53.238;6.576;2024-01-07T12:45:32;6.10;;;2.43;;
54929;SDS011;40833;53.238;6.576;2024-01-07T12:47:58;5.23;;;2.57;;
54929;SDS011;40833;53.238;6.576;2024-01-07T12:50:27;3.40;;;2.27;;
54929;SDS011;40833;53.238;6.576;2024-01-07T12:52:55;4.63;;;2.30;;
54929;SDS011;40833;53.238;6.576;2024-01-07T12:55:20;5.73;;;3.27;;
54929;SDS011;40833;53.238;6.576;2024-01-07T12:57:47;4.73;;;2.93;;
54929;SDS011;40833;53.238;6.576;2024-01-07T13:00:13;8.53;;;3.00;;
54929;SDS011;40833;53.238;6.576;2024-01-07T13:02:39;3.83;;;2.33;;
54929;SDS011;40833;53.238;6.576;2024-01-07T13:05:05;8.97;;;2.90;;
54929;SDS011;40833;53.238;6.576;2024-01-07T13:07:31;6.20;;;2.77;;
54929;SDS011;40833;53.238;6.576;2024-01-07T13:09:57;6.13;;;3.10;;
54929;SDS011;40833;53.238;6.576;2024-01-07T13:12:23;5.63;;;2.93;;
54929;SDS011;40833;53.238;6.576;2024-01-07T13:14:50;3.80;;;2.80;;
54929;SDS011;40833;53.238;6.576;2024-01-07T13:17:15;4.00;;;2.73;;
54929;SDS011;40833;53.238;6.576;2024-01-07T13:19:41;12.47;;;2.80;;
54929;SDS011;40833;53.238;6.576;2024-01-07T13:22:07;7.03;;;3.00;;
54929;SDS011;40833;53.238;6.576;2024-01-07T13:24:34;5.20;;;2.90;;
54929;SDS011;40833;53.238;6.576;2024-01-07T13:27:00;7.17;;;2.37;;
54929;SDS011;40833;53.238;6.576;2024-01-07T13:29:25;5.90;;;2.43;;
54929;SDS011;40833;53.238;6.576;2024-01-07T13:31:51;7.20;;;3.10;;
54929;SDS011;40833;53.238;6.576;2024-01-07T13:34:17;5.47;;;2.47;;
54929;SDS011;40833;53.238;6.576;2024-01-07T13:36:43;5.17;;;2.57;;
54929;SDS011;40833;53.238;6.576;2024-01-07T13:39:09;5.73;;;2.90;;
54929;SDS011;40833;53.238;6.576;2024-01-07T13:41:35;8.30;;;4.07;;
54929;SDS011;40833;53.238;6.576;2024-01-07T13:44:02;9.27;;;3.43;;
54929;SDS011;40833;53.238;6.576;2024-01-07T13:46:32;11.30;;;3.37;;
54929;SDS011;40833;53.238;6.576;2024-01-07T13:48:58;6.37;;;3.40;;
54929;SDS011;40833;53.238;6.576;2024-01-07T13:51:24;4.77;;;2.80;;
54929;SDS011;40833;53.238;6.576;2024-01-07T13:53:51;14.57;;;4.27;;
54929;SDS011;40833;53.238;6.576;2024-01-07T13:56:17;7.47;;;3.07;;
54929;SDS011;40833;53.238;6.576;2024-01-07T13:58:43;4.90;;;3.17;;
54929;SDS011;40833;53.238;6.576;2024-01-07T14:01:11;7.70;;;3.87;;
54929;SDS011;40833;53.238;6.576;2024-01-07T14:03:41;11.87;;;3.13;;
54929;SDS011;40833;53.238;6.576;2024-01-07T14:06:07;8.23;;;3.50;;
54929;SDS011;40833;53.238;6.576;2024-01-07T14:08:33;9.83;;;3.57;;
54929;SDS011;40833;53.238;6.576;2024-01-07T14:10:59;8.57;;;3.57;;
54929;SDS011;40833;53.238;6.576;2024-01-07T14:13:24;7.53;;;3.40;;
54929;SDS011;40833;53.238;6.576;2024-01-07T14:15:50;9.67;;;3.10;;
54929;SDS011;40833;53.238;6.576;2024-01-07T14:18:16;6.47;;;2.97;;
54929;SDS011;40833;53.238;6.576;2024-01-07T14:20:45;4.90;;;2.60;;
54929;SDS011;40833;53.238;6.576;2024-01-07T14:23:10;9.87;;;2.60;;
54929;SDS011;40833;53.238;6.576;2024-01-07T14:25:36;6.87;;;2.50;;
54929;SDS011;40833;53.238;6.576;2024-01-07T14:28:02;6.50;;;2.43;;
54929;SDS011;40833;53.238;6.576;2024-01-07T14:30:29;5.53;;;2.47;;
54929;SDS011;40833;53.238;6.576;2024-01-07T14:32:54;3.93;;;2.40;;
54929;SDS011;40833;53.238;6.576;2024-01-07T14:35:20;10.67;;;3.13;;
54929;SDS011;40833;53.238;6.576;2024-01-07T14:37:46;5.57;;;2.53;;
54929;SDS011;40833;53.238;6.576;2024-01-07T14:40:11;9.20;;;2.97;;
54929;SDS011;40833;53.238;6.576;2024-01-07T14:42:37;6.00;;;2.80;;
54929;SDS011;40833;53.238;6.576;2024-01-07T14:45:03;11.17;;;3.37;;